sensor_id;sensor_type;location;lat;lon;timestamp;pressure;altitude;pressure_sealevel;temperature;humidity
37852;BME280;23691;52.486;4.650;2023-10-09T00:01:05;101996.34;;;19.71;74.67
37852;BME280;23691;52.486;4.650;2023-10-09T00:03:39;101994.34;;;19.80;74.73
37852;BME280;23691;52.486;4.650;2023-10-09T00:06:05;101999.19;;;19.84;74.48
37852;BME280;23691;52.486;4.650;2023-10-09T00:08:30;101993.16;;;19.89;74.15
37852;BME280;23691;52.486;4.650;2023-10-09T00:10:56;101989.22;;;19.91;74.16
37852;BME280;23691;52.486;4.650;2023-10-09T00:19:28;101986.16;;;20.01;74.06
37852;BME280;23691;52.486;4.650;2023-10-09T00:21:57;101992.00;;;20.05;73.87
37852;BME280;23691;52.486;4.650;2023-10-09T00:24:26;101979.91;;;20.07;73.83
37852;BME280;23691;52.486;4.650;2023-10-09T00:26:51;101977.84;;;20.09;73.59
37852;BME280;23691;52.486;4.650;2023-10-09T00:29:17;101987.47;;;20.12;73.59
37852;BME280;23691;52.486;4.650;2023-10-09T00:31:52;101981.44;;;20.16;73.44
37852;BME280;23691;52.486;4.650;2023-10-09T00:34:41;101979.34;;;20.19;73.34
37852;BME280;23691;52.486;4.650;2023-10-09T00:37:07;101978.31;;;20.20;73.19
37852;BME280;23691;52.486;4.650;2023-10-09T00:39:44;101974.34;;;20.22;73.14
37852;BME280;23691;52.486;4.650;2023-10-09T00:42:13;101971.44;;;20.24;72.88
37852;BME280;23691;52.486;4.650;2023-10-09T00:44:39;101979.19;;;20.27;72.72
37852;BME280;23691;52.486;4.650;2023-10-09T00:47:06;101975.22;;;20.29;72.37
37852;BME280;23691;52.486;4.650;2023-10-09T00:49:46;101977.94;;;20.29;71.84
37852;BME280;23691;52.486;4.650;2023-10-09T00:52:13;101965.81;;;20.32;71.53
37852;BME280;23691;52.486;4.650;2023-10-09T00:54:47;101970.19;;;20.33;70.90
37852;BME280;23691;52.486;4.650;2023-10-09T00:57:16;101963.56;;;20.35;70.61
37852;BME280;23691;52.486;4.650;2023-10-09T00:59:43;101953.91;;;20.33;70.19
37852;BME280;23691;52.486;4.650;2023-10-09T01:02:11;101947.03;;;20.37;69.88
37852;BME280;23691;52.486;4.650;2023-10-09T01:04:37;101939.69;;;20.37;69.51
37852;BME280;23691;52.486;4.650;2023-10-09T01:07:05;101944.53;;;20.35;69.31
37852;BME280;23691;52.486;4.650;2023-10-09T01:09:40;101948.50;;;20.40;68.95
37852;BME280;23691;52.486;4.650;2023-10-09T01:12:08;101948.72;;;20.38;68.94
37852;BME280;23691;52.486;4.650;2023-10-09T01:14:42;101948.31;;;20.41;68.82
37852;BME280;23691;52.486;4.650;2023-10-09T01:17:07;101944.28;;;20.30;69.17
37852;BME280;23691;52.486;4.650;2023-10-09T01:19:36;101943.25;;;20.31;69.05
37852;BME280;23691;52.486;4.650;2023-10-09T01:22:02;101936.56;;;20.34;68.74
37852;BME280;23691;52.486;4.650;2023-10-09T01:24:37;101936.38;;;20.35;68.66
37852;BME280;23691;52.486;4.650;2023-10-09T01:27:03;101927.16;;;20.36;68.45
37852;BME280;23691;52.486;4.650;2023-10-09T01:29:39;101927.38;;;20.35;68.57
37852;BME280;23691;52.486;4.650;2023-10-09T01:32:07;101919.84;;;20.37;68.51
37852;BME280;23691;52.486;4.650;2023-10-09T01:34:34;101926.97;;;20.38;68.51
37852;BME280;23691;52.486;4.650;2023-10-09T01:37:11;101925.09;;;20.38;68.41
37852;BME280;23691;52.486;4.650;2023-10-09T01:39:48;101918.59;;;20.40;68.60
37852;BME280;23691;52.486;4.650;2023-10-09T01:42:20;101929.28;;;20.41;68.59
37852;BME280;23691;52.486;4.650;2023-10-09T01:45:08;101919.25;;;20.42;68.60
37852;BME280;23691;52.486;4.650;2023-10-09T01:47:37;101911.91;;;20.42;68.62
37852;BME280;23691;52.486;4.650;2023-10-09T01:50:05;101905.66;;;20.42;68.29
37852;BME280;23691;52.486;4.650;2023-10-09T01:52:44;101906.28;;;20.44;68.25
37852;BME280;23691;52.486;4.650;2023-10-09T01:55:10;101912.75;;;20.43;68.32
37852;BME280;23691;52.486;4.650;2023-10-09T01:57:54;101904.59;;;20.43;68.36
37852;BME280;23691;52.486;4.650;2023-10-09T02:00:19;101900.84;;;20.44;68.17
37852;BME280;23691;52.486;4.650;2023-10-09T02:02:49;101906.28;;;20.44;68.16
37852;BME280;23691;52.486;4.650;2023-10-09T02:05:15;101913.81;;;20.42;68.06
37852;BME280;23691;52.486;4.650;2023-10-09T02:07:41;101900.84;;;20.44;67.92
37852;BME280;23691;52.486;4.650;2023-10-09T02:10:10;101902.31;;;20.46;68.08
37852;BME280;23691;52.486;4.650;2023-10-09T02:12:47;101913.00;;;20.48;68.23
37852;BME280;23691;52.486;4.650;2023-10-09T02:15:15;101905.69;;;20.48;68.14
37852;BME280;23691;52.486;4.650;2023-10-09T02:17:52;101908.41;;;20.48;68.47
37852;BME280;23691;52.486;4.650;2023-10-09T02:20:25;101898.16;;;20.50;68.54
37852;BME280;23691;52.486;4.650;2023-10-09T02:22:55;101902.53;;;20.51;68.96
37852;BME280;23691;52.486;4.650;2023-10-09T02:25:23;101886.88;;;20.53;69.22
37852;BME280;23691;52.486;4.650;2023-10-09T02:27:54;101876.00;;;20.53;69.51
37852;BME280;23691;52.486;4.650;2023-10-09T02:30:20;101872.22;;;20.54;69.78
37852;BME280;23691;52.486;4.650;2023-10-09T02:32:54;101872.44;;;20.53;70.12
37852;BME280;23691;52.486;4.650;2023-10-09T02:35:32;101861.34;;;20.54;70.20
37852;BME280;23691;52.486;4.650;2023-10-09T02:38:03;101872.22;;;20.54;70.24
37852;BME280;23691;52.486;4.650;2023-10-09T02:40:32;101865.97;;;20.54;70.27
37852;BME280;23691;52.486;4.650;2023-10-09T02:43:05;101874.13;;;20.54;70.23
37852;BME280;23691;52.486;4.650;2023-10-09T02:45:31;101872.22;;;20.54;70.26
37852;BME280;23691;52.486;4.650;2023-10-09T02:48:00;101884.16;;;20.53;70.37
37852;BME280;23691;52.486;4.650;2023-10-09T02:50:36;101864.06;;;20.54;70.23
37852;BME280;23691;52.486;4.650;2023-10-09T02:53:06;101864.94;;;20.55;70.14
37852;BME280;23691;52.486;4.650;2023-10-09T02:55:35;101859.50;;;20.55;70.19
37852;BME280;23691;52.486;4.650;2023-10-09T02:58:03;101874.13;;;20.54;70.06
37852;BME280;23691;52.486;4.650;2023-10-09T03:00:36;101877.66;;;20.54;70.16
37852;BME280;23691;52.486;4.650;2023-10-09T03:03:02;101879.38;;;20.55;70.27
37852;BME280;23691;52.486;4.650;2023-10-09T03:05:34;101878.72;;;20.53;70.21
37852;BME280;23691;52.486;4.650;2023-10-09T03:08:03;101890.44;;;20.54;69.96
37852;BME280;23691;52.486;4.650;2023-10-09T03:10:29;101897.56;;;20.55;69.91
37852;BME280;23691;52.486;4.650;2023-10-09T03:12:54;101901.28;;;20.54;69.70
37852;BME280;23691;52.486;4.650;2023-10-09T03:15:21;101902.59;;;20.58;69.58
37852;BME280;23691;52.486;4.650;2023-10-09T03:17:46;101890.88;;;20.57;69.73
37852;BME280;23691;52.486;4.650;2023-10-09T03:20:13;101891.72;;;20.58;69.78
37852;BME280;23691;52.486;4.650;2023-10-09T03:22:41;101887.53;;;20.55;69.87
37852;BME280;23691;52.486;4.650;2023-10-09T03:25:07;101907.19;;;20.57;69.89
37852;BME280;23691;52.486;4.650;2023-10-09T03:27:42;101908.22;;;20.56;70.08
37852;BME280;23691;52.486;4.650;2023-10-09T03:30:10;101905.53;;;20.56;70.12
37852;BME280;23691;52.486;4.650;2023-10-09T03:32:43;101914.72;;;20.55;70.20
37852;BME280;23691;52.486;4.650;2023-10-09T03:35:08;101904.00;;;20.54;70.42
37852;BME280;23691;52.486;4.650;2023-10-09T03:37:38;101904.84;;;20.54;70.37
37852;BME280;23691;52.486;4.650;2023-10-09T03:40:04;101905.53;;;20.56;70.44
37852;BME280;23691;52.486;4.650;2023-10-09T03:42:32;101895.69;;;20.55;70.54
37852;BME280;23691;52.486;4.650;2023-10-09T03:45:00;101866.41;;;20.57;70.68
37852;BME280;23691;52.486;4.650;2023-10-09T03:47:27;101886.06;;;20.59;70.82
37852;BME280;23691;52.486;4.650;2023-10-09T03:49:52;101869.13;;;20.57;70.85
37852;BME280;23691;52.486;4.650;2023-10-09T03:52:18;101865.56;;;20.57;71.00
37852;BME280;23691;52.486;4.650;2023-10-09T03:54:44;101860.97;;;20.57;70.83
37852;BME280;23691;52.486;4.650;2023-10-09T03:57:12;101860.97;;;20.57;71.14
37852;BME280;23691;52.486;4.650;2023-10-09T03:59:45;101849.06;;;20.58;70.80
37852;BME280;23691;52.486;4.650;2023-10-09T04:02:12;101849.06;;;20.58;70.74
37852;BME280;23691;52.486;4.650;2023-10-09T04:04:38;101847.38;;;20.57;70.84
37852;BME280;23691;52.486;4.650;2023-10-09T04:07:03;101850.94;;;20.58;70.72
37852;BME280;23691;52.486;4.650;2023-10-09T04:09:29;101860.78;;;20.59;70.59
37852;BME280;23691;52.486;4.650;2023-10-09T04:12:01;101864.31;;;20.59;70.50
37852;BME280;23691;52.486;4.650;2023-10-09T04:14:38;101865.78;;;20.55;70.49
37852;BME280;23691;52.486;4.650;2023-10-09T04:17:15;101867.00;;;20.53;70.68
37852;BME280;23691;52.486;4.650;2023-10-09T04:19:59;101864.06;;;20.54;70.53
37852;BME280;23691;52.486;4.650;2023-10-09T04:28:22;101872.22;;;20.54;70.62
37852;BME280;23691;52.486;4.650;2023-10-09T04:30:48;101876.66;;;20.55;70.48
37852;BME280;23691;52.486;4.650;2023-10-09T04:33:22;101880.38;;;20.54;70.77
37852;BME280;23691;52.486;4.650;2023-10-09T04:51:24;101926.59;;;20.48;71.79
37852;BME280;23691;52.486;4.650;2023-10-09T04:54:12;101912.13;;;20.47;71.87
37852;BME280;23691;52.486;4.650;2023-10-09T05:03:11;101929.06;;;20.43;72.03
37852;BME280;23691;52.486;4.650;2023-10-09T05:11:56;101917.56;;;20.41;71.80
37852;BME280;23691;52.486;4.650;2023-10-09T05:27:31;101914.63;;;20.42;70.93
37852;BME280;23691;52.486;4.650;2023-10-09T05:30:16;101898.56;;;20.41;70.78
37852;BME280;23691;52.486;4.650;2023-10-09T05:32:51;101906.06;;;20.38;70.84
37852;BME280;23691;52.486;4.650;2023-10-09T05:35:20;101897.91;;;20.38;70.78
37852;BME280;23691;52.486;4.650;2023-10-09T05:38:03;101904.19;;;20.39;70.84
37852;BME280;23691;52.486;4.650;2023-10-09T05:40:30;101904.19;;;20.39;70.64
37852;BME280;23691;52.486;4.650;2023-10-09T06:08:07;101903.34;;;20.38;71.40
37852;BME280;23691;52.486;4.650;2023-10-09T06:10:39;101907.09;;;20.37;71.35
37852;BME280;23691;52.486;4.650;2023-10-09T06:13:06;101905.63;;;20.35;71.32
37852;BME280;23691;52.486;4.650;2023-10-09T06:15:37;101914.63;;;20.35;71.31
37852;BME280;23691;52.486;4.650;2023-10-09T06:24:21;101924.44;;;20.36;71.09
37852;BME280;23691;52.486;4.650;2023-10-09T06:26:51;101920.25;;;20.34;71.05
37852;BME280;23691;52.486;4.650;2023-10-09T06:29:33;101906.88;;;20.32;70.97
37852;BME280;23691;52.486;4.650;2023-10-09T06:32:05;101910.41;;;20.33;70.86
37852;BME280;23691;52.486;4.650;2023-10-09T06:34:59;101899.34;;;20.34;70.94
37852;BME280;23691;52.486;4.650;2023-10-09T07:38:28;101870.63;;;21.33;68.18
37852;BME280;23691;52.486;4.650;2023-10-09T09:07:27;102012.16;;;22.78;63.52
37852;BME280;23691;52.486;4.650;2023-10-09T09:10:04;102006.25;;;22.81;63.73
37852;BME280;23691;52.486;4.650;2023-10-09T09:12:45;102013.78;;;22.86;63.89
37852;BME280;23691;52.486;4.650;2023-10-09T09:15:14;102013.59;;;22.87;63.18
37852;BME280;23691;52.486;4.650;2023-10-09T09:17:46;102010.88;;;22.87;62.98
37852;BME280;23691;52.486;4.650;2023-10-09T17:06:01;102083.38;;;20.82;68.45
37852;BME280;23691;52.486;4.650;2023-10-09T18:56:51;102124.56;;;20.44;69.18
37852;BME280;23691;52.486;4.650;2023-10-09T18:59:17;102126.47;;;20.44;69.44
37852;BME280;23691;52.486;4.650;2023-10-09T19:14:44;102129.75;;;20.39;69.46
37852;BME280;23691;52.486;4.650;2023-10-09T20:46:29;102122.47;;;19.90;70.08
37852;BME280;23691;52.486;4.650;2023-10-09T20:48:56;102119.75;;;19.90;70.41
37852;BME280;23691;52.486;4.650;2023-10-09T20:51:21;102128.09;;;19.88;70.42
37852;BME280;23691;52.486;4.650;2023-10-09T20:58:58;102124.94;;;19.85;70.60
37852;BME280;23691;52.486;4.650;2023-10-09T21:01:23;102125.13;;;19.83;70.74
37852;BME280;23691;52.486;4.650;2023-10-09T21:03:49;102125.13;;;19.83;70.47
37852;BME280;23691;52.486;4.650;2023-10-09T21:06:15;102136.00;;;19.83;70.78
37852;BME280;23691;52.486;4.650;2023-10-09T21:08:41;102125.34;;;19.82;70.82
37852;BME280;23691;52.486;4.650;2023-10-09T21:11:06;102132.63;;;19.81;70.82
37852;BME280;23691;52.486;4.650;2023-10-09T21:13:34;102121.97;;;19.80;70.68
37852;BME280;23691;52.486;4.650;2023-10-09T21:16:02;102129.47;;;19.78;70.97
37852;BME280;23691;52.486;4.650;2023-10-09T21:18:29;102140.34;;;19.78;70.85
37852;BME280;23691;52.486;4.650;2023-10-09T21:23:29;102139.03;;;19.73;70.96
37852;BME280;23691;52.486;4.650;2023-10-09T21:28:33;102139.81;;;19.67;70.87
37852;BME280;23691;52.486;4.650;2023-10-09T21:31:01;102139.31;;;19.64;70.80
37852;BME280;23691;52.486;4.650;2023-10-09T21:33:26;102144.13;;;19.62;70.76
37852;BME280;23691;52.486;4.650;2023-10-09T21:35:55;102144.31;;;19.60;70.84
37852;BME280;23691;52.486;4.650;2023-10-09T21:38:20;102140.94;;;19.58;70.97
37852;BME280;23691;52.486;4.650;2023-10-09T21:40:46;102136.91;;;19.54;70.91
37852;BME280;23691;52.486;4.650;2023-10-09T21:43:14;102136.47;;;19.50;70.82
37852;BME280;23691;52.486;4.650;2023-10-09T21:50:50;102134.72;;;19.43;70.73
37852;BME280;23691;52.486;4.650;2023-10-09T21:53:16;102135.94;;;19.40;70.69
37852;BME280;23691;52.486;4.650;2023-10-09T21:55:42;102129.88;;;19.38;70.81
37852;BME280;23691;52.486;4.650;2023-10-09T21:58:09;102128.38;;;19.36;70.75
37852;BME280;23691;52.486;4.650;2023-10-09T22:00:36;102128.56;;;19.34;70.86
37852;BME280;23691;52.486;4.650;2023-10-09T22:03:02;102127.06;;;19.31;70.71
37852;BME280;23691;52.486;4.650;2023-10-09T22:05:33;102124.75;;;19.28;70.77
37852;BME280;23691;52.486;4.650;2023-10-09T22:07:58;102114.28;;;19.25;70.87
37852;BME280;23691;52.486;4.650;2023-10-09T22:10:24;102116.34;;;19.23;70.82
37852;BME280;23691;52.486;4.650;2023-10-09T22:12:50;102118.41;;;19.21;70.63
37852;BME280;23691;52.486;4.650;2023-10-09T22:15:15;102117.09;;;19.17;70.85
37852;BME280;23691;52.486;4.650;2023-10-09T22:17:43;102113.75;;;19.15;70.96
37852;BME280;23691;52.486;4.650;2023-10-09T22:20:12;102115.81;;;19.13;70.65
37852;BME280;23691;52.486;4.650;2023-10-09T22:22:41;102112.44;;;19.11;70.80
37852;BME280;23691;52.486;4.650;2023-10-09T22:25:11;102110.94;;;19.08;70.78
37852;BME280;23691;52.486;4.650;2023-10-09T22:27:38;102108.41;;;19.07;70.70
37852;BME280;23691;52.486;4.650;2023-10-09T22:30:05;102115.72;;;19.06;70.86
37852;BME280;23691;52.486;4.650;2023-10-09T22:32:43;102116.94;;;19.04;70.59
37852;BME280;23691;52.486;4.650;2023-10-09T22:35:09;102113.13;;;18.98;70.67
37852;BME280;23691;52.486;4.650;2023-10-09T22:37:38;102111.16;;;18.92;71.10
37852;BME280;23691;52.486;4.650;2023-10-09T22:40:04;102103.03;;;18.92;70.91
37852;BME280;23691;52.486;4.650;2023-10-09T22:42:53;102092.16;;;18.92;71.04
37852;BME280;23691;52.486;4.650;2023-10-09T22:45:18;102094.06;;;18.92;70.77
37852;BME280;23691;52.486;4.650;2023-10-09T22:47:58;102097.97;;;18.89;71.02
37852;BME280;23691;52.486;4.650;2023-10-09T22:50:27;102096.31;;;18.88;71.03
37852;BME280;23691;52.486;4.650;2023-10-09T22:53:02;102097.16;;;18.88;71.29
37852;BME280;23691;52.486;4.650;2023-10-09T22:55:39;102096.31;;;18.88;71.26
37852;BME280;23691;52.486;4.650;2023-10-09T22:58:10;102087.13;;;18.89;71.09
37852;BME280;23691;52.486;4.650;2023-10-09T23:00:38;102088.19;;;18.88;71.21
37852;BME280;23691;52.486;4.650;2023-10-09T23:03:13;102084.81;;;18.86;71.25
37852;BME280;23691;52.486;4.650;2023-10-09T23:05:50;102089.19;;;18.87;71.50
37852;BME280;23691;52.486;4.650;2023-10-09T23:08:21;102078.56;;;18.85;71.37
37852;BME280;23691;52.486;4.650;2023-10-09T23:10:46;102081.25;;;18.85;71.28
37852;BME280;23691;52.486;4.650;2023-10-09T23:13:18;102082.09;;;18.86;71.38
37852;BME280;23691;52.486;4.650;2023-10-09T23:15:58;102076.69;;;18.86;71.34
37852;BME280;23691;52.486;4.650;2023-10-09T23:18:36;102079.56;;;18.84;71.49
37852;BME280;23691;52.486;4.650;2023-10-09T23:21:30;102082.66;;;18.81;71.39
37852;BME280;23691;52.486;4.650;2023-10-09T23:24:15;102084.72;;;18.79;71.50
37852;BME280;23691;52.486;4.650;2023-10-09T23:26:52;102078.63;;;18.77;71.32
37852;BME280;23691;52.486;4.650;2023-10-09T23:29:19;102071.53;;;18.76;71.63
37852;BME280;23691;52.486;4.650;2023-10-09T23:31:55;102069.38;;;18.72;71.40
37852;BME280;23691;52.486;4.650;2023-10-09T23:34:40;102069.19;;;18.73;71.47
37852;BME280;23691;52.486;4.650;2023-10-09T23:37:18;102068.72;;;18.70;71.59
37852;BME280;23691;52.486;4.650;2023-10-09T23:39:43;102075.16;;;18.69;71.55
37852;BME280;23691;52.486;4.650;2023-10-09T23:42:17;102069.28;;;18.65;71.67
37852;BME280;23691;52.486;4.650;2023-10-09T23:44:50;102059.66;;;18.62;72.11
37852;BME280;23691;52.486;4.650;2023-10-09T23:47:16;102063.41;;;18.61;71.91
37852;BME280;23691;52.486;4.650;2023-10-09T23:49:42;102063.56;;;18.60;71.94
37852;BME280;23691;52.486;4.650;2023-10-09T23:52:09;102063.56;;;18.60;71.90
37852;BME280;23691;52.486;4.650;2023-10-09T23:54:35;102060.69;;;18.61;72.11
37852;BME280;23691;52.486;4.650;2023-10-09T23:57:08;102059.84;;;18.61;72.19
37852;BME280;23691;52.486;4.650;2023-10-09T23:59:37;102068.81;;;18.61;72.30
